sensor_id;sensor_type;location;lat;lon;timestamp;temperature;humidity
1680;DHT22;838;51.794;12.258;2022-08-16T00:01:32;20.80;80.00
1680;DHT22;838;51.794;12.258;2022-08-16T00:04:01;21.10;77.90
1680;DHT22;838;51.794;12.258;2022-08-16T00:06:39;21.10;75.40
1680;DHT22;838;51.794;12.258;2022-08-16T00:09:29;21.20;73.50
1680;DHT22;838;51.794;12.258;2022-08-16T00:11:58;21.10;72.80
1680;DHT22;838;51.794;12.258;2022-08-16T00:14:28;21.00;74.50
1680;DHT22;838;51.794;12.258;2022-08-16T00:16:58;20.90;76.10
1680;DHT22;838;51.794;12.258;2022-08-16T00:19:31;20.60;79.30
1680;DHT22;838;51.794;12.258;2022-08-16T00:22:03;20.30;81.00
1680;DHT22;838;51.794;12.258;2022-08-16T00:24:30;20.40;81.30
1680;DHT22;838;51.794;12.258;2022-08-16T00:26:58;20.60;78.90
1680;DHT22;838;51.794;12.258;2022-08-16T00:29:31;20.80;75.80
1680;DHT22;838;51.794;12.258;2022-08-16T00:32:03;21.00;75.50
1680;DHT22;838;51.794;12.258;2022-08-16T00:34:31;21.10;73.80
1680;DHT22;838;51.794;12.258;2022-08-16T00:36:57;21.10;73.40
1680;DHT22;838;51.794;12.258;2022-08-16T00:39:23;21.00;75.40
1680;DHT22;838;51.794;12.258;2022-08-16T00:41:49;20.80;76.50
1680;DHT22;838;51.794;12.258;2022-08-16T00:44:18;20.60;76.70
1680;DHT22;838;51.794;12.258;2022-08-16T00:46:55;20.40;79.80
1680;DHT22;838;51.794;12.258;2022-08-16T00:49:22;20.30;78.30
1680;DHT22;838;51.794;12.258;2022-08-16T00:51:50;20.20;80.80
1680;DHT22;838;51.794;12.258;2022-08-16T00:54:17;20.00;81.80
1680;DHT22;838;51.794;12.258;2022-08-16T00:56:46;20.00;81.40
1680;DHT22;838;51.794;12.258;2022-08-16T00:59:19;20.00;81.60
1680;DHT22;838;51.794;12.258;2022-08-16T01:01:46;19.60;82.80
1680;DHT22;838;51.794;12.258;2022-08-16T01:04:17;19.60;84.20
1680;DHT22;838;51.794;12.258;2022-08-16T01:06:44;19.60;84.80
1680;DHT22;838;51.794;12.258;2022-08-16T01:09:10;19.70;84.60
1680;DHT22;838;51.794;12.258;2022-08-16T01:11:43;19.80;84.70
1680;DHT22;838;51.794;12.258;2022-08-16T01:14:23;19.90;83.20
1680;DHT22;838;51.794;12.258;2022-08-16T01:16:50;20.00;83.70
1680;DHT22;838;51.794;12.258;2022-08-16T01:19:27;20.00;83.30
1680;DHT22;838;51.794;12.258;2022-08-16T01:24:54;20.30;82.00
1680;DHT22;838;51.794;12.258;2022-08-16T01:27:30;20.40;82.10
1680;DHT22;838;51.794;12.258;2022-08-16T01:30:03;20.40;82.00
1680;DHT22;838;51.794;12.258;2022-08-16T01:32:32;20.40;83.50
1680;DHT22;838;51.794;12.258;2022-08-16T01:35:06;20.40;84.10
1680;DHT22;838;51.794;12.258;2022-08-16T01:37:45;20.50;83.30
1680;DHT22;838;51.794;12.258;2022-08-16T01:40:14;20.50;82.10
1680;DHT22;838;51.794;12.258;2022-08-16T01:42:50;20.50;81.30
1680;DHT22;838;51.794;12.258;2022-08-16T01:45:17;20.60;79.60
1680;DHT22;838;51.794;12.258;2022-08-16T01:47:45;20.60;79.40
1680;DHT22;838;51.794;12.258;2022-08-16T01:50:12;20.80;76.40
1680;DHT22;838;51.794;12.258;2022-08-16T01:52:39;20.70;74.70
1680;DHT22;838;51.794;12.258;2022-08-16T01:55:06;20.60;73.30
1680;DHT22;838;51.794;12.258;2022-08-16T01:57:35;20.60;73.70
1680;DHT22;838;51.794;12.258;2022-08-16T02:00:07;20.50;73.50
1680;DHT22;838;51.794;12.258;2022-08-16T02:02:47;20.40;74.60
1680;DHT22;838;51.794;12.258;2022-08-16T02:05:13;20.60;72.60
1680;DHT22;838;51.794;12.258;2022-08-16T02:07:39;20.80;70.70
1680;DHT22;838;51.794;12.258;2022-08-16T02:10:21;20.80;69.10
1680;DHT22;838;51.794;12.258;2022-08-16T02:12:54;20.90;68.30
1680;DHT22;838;51.794;12.258;2022-08-16T02:15:23;20.90;68.20
1680;DHT22;838;51.794;12.258;2022-08-16T02:17:49;21.00;67.60
1680;DHT22;838;51.794;12.258;2022-08-16T02:20:25;20.90;68.20
1680;DHT22;838;51.794;12.258;2022-08-16T02:22:52;20.80;68.30
1680;DHT22;838;51.794;12.258;2022-08-16T02:25:22;20.70;70.30
1680;DHT22;838;51.794;12.258;2022-08-16T02:27:49;20.70;70.40
1680;DHT22;838;51.794;12.258;2022-08-16T02:30:20;20.70;70.10
1680;DHT22;838;51.794;12.258;2022-08-16T02:32:46;20.60;70.60
1680;DHT22;838;51.794;12.258;2022-08-16T02:35:12;20.50;72.30
1680;DHT22;838;51.794;12.258;2022-08-16T02:37:42;20.60;69.60
1680;DHT22;838;51.794;12.258;2022-08-16T02:40:13;20.70;66.90
1680;DHT22;838;51.794;12.258;2022-08-16T02:42:42;20.60;65.30
1680;DHT22;838;51.794;12.258;2022-08-16T02:45:08;20.60;64.90
1680;DHT22;838;51.794;12.258;2022-08-16T02:47:37;20.50;65.90
1680;DHT22;838;51.794;12.258;2022-08-16T02:50:04;20.40;67.90
1680;DHT22;838;51.794;12.258;2022-08-16T02:52:30;20.40;70.30
1680;DHT22;838;51.794;12.258;2022-08-16T02:54:57;20.10;71.40
1680;DHT22;838;51.794;12.258;2022-08-16T02:57:23;19.70;74.90
1680;DHT22;838;51.794;12.258;2022-08-16T02:59:49;19.70;77.40
1680;DHT22;838;51.794;12.258;2022-08-16T03:02:16;19.50;78.90
1680;DHT22;838;51.794;12.258;2022-08-16T03:04:44;19.40;80.90
1680;DHT22;838;51.794;12.258;2022-08-16T03:07:10;19.30;81.90
1680;DHT22;838;51.794;12.258;2022-08-16T03:09:39;19.30;84.20
1680;DHT22;838;51.794;12.258;2022-08-16T03:12:05;19.30;85.10
1680;DHT22;838;51.794;12.258;2022-08-16T03:14:32;19.30;85.50
1680;DHT22;838;51.794;12.258;2022-08-16T03:16:58;19.00;87.50
1680;DHT22;838;51.794;12.258;2022-08-16T03:19:24;19.20;90.10
1680;DHT22;838;51.794;12.258;2022-08-16T03:21:50;19.30;89.60
1680;DHT22;838;51.794;12.258;2022-08-16T03:24:16;19.30;89.40
1680;DHT22;838;51.794;12.258;2022-08-16T03:26:41;19.30;88.80
1680;DHT22;838;51.794;12.258;2022-08-16T03:29:14;19.40;89.90
1680;DHT22;838;51.794;12.258;2022-08-16T03:31:49;19.60;87.60
1680;DHT22;838;51.794;12.258;2022-08-16T03:34:19;19.90;83.70
1680;DHT22;838;51.794;12.258;2022-08-16T03:36:45;20.10;79.60
1680;DHT22;838;51.794;12.258;2022-08-16T03:39:11;20.20;76.30
1680;DHT22;838;51.794;12.258;2022-08-16T03:41:37;20.30;74.20
1680;DHT22;838;51.794;12.258;2022-08-16T03:44:03;20.30;72.30
1680;DHT22;838;51.794;12.258;2022-08-16T03:46:33;20.10;70.80
1680;DHT22;838;51.794;12.258;2022-08-16T03:48:59;19.90;71.80
1680;DHT22;838;51.794;12.258;2022-08-16T03:51:24;20.00;72.80
1680;DHT22;838;51.794;12.258;2022-08-16T03:53:50;20.10;72.00
1680;DHT22;838;51.794;12.258;2022-08-16T03:56:19;20.20;71.80
1680;DHT22;838;51.794;12.258;2022-08-16T03:58:49;20.20;73.40
1680;DHT22;838;51.794;12.258;2022-08-16T04:01:14;20.10;77.10
1680;DHT22;838;51.794;12.258;2022-08-16T04:03:43;20.20;76.90
1680;DHT22;838;51.794;12.258;2022-08-16T04:06:09;20.30;75.00
1680;DHT22;838;51.794;12.258;2022-08-16T04:08:38;20.00;74.20
1680;DHT22;838;51.794;12.258;2022-08-16T04:11:03;19.90;79.10
1680;DHT22;838;51.794;12.258;2022-08-16T04:13:29;20.00;76.20
1680;DHT22;838;51.794;12.258;2022-08-16T04:16:04;20.20;74.90
1680;DHT22;838;51.794;12.258;2022-08-16T04:18:31;20.20;75.00
1680;DHT22;838;51.794;12.258;2022-08-16T04:20:56;20.30;72.70
1680;DHT22;838;51.794;12.258;2022-08-16T04:23:24;20.40;70.70
1680;DHT22;838;51.794;12.258;2022-08-16T04:25:50;20.30;70.60
1680;DHT22;838;51.794;12.258;2022-08-16T04:28:25;20.20;73.00
1680;DHT22;838;51.794;12.258;2022-08-16T04:30:54;20.10;74.40
1680;DHT22;838;51.794;12.258;2022-08-16T04:33:19;20.10;76.60
1680;DHT22;838;51.794;12.258;2022-08-16T04:35:48;19.70;79.50
1680;DHT22;838;51.794;12.258;2022-08-16T04:38:14;19.70;80.80
1680;DHT22;838;51.794;12.258;2022-08-16T04:40:40;19.90;79.30
1680;DHT22;838;51.794;12.258;2022-08-16T04:43:06;19.90;79.30
1680;DHT22;838;51.794;12.258;2022-08-16T04:45:32;19.90;79.40
1680;DHT22;838;51.794;12.258;2022-08-16T04:47:58;19.90;79.90
1680;DHT22;838;51.794;12.258;2022-08-16T04:50:25;19.80;80.40
1680;DHT22;838;51.794;12.258;2022-08-16T04:52:52;19.80;81.40
1680;DHT22;838;51.794;12.258;2022-08-16T04:55:24;19.80;81.30
1680;DHT22;838;51.794;12.258;2022-08-16T04:57:59;19.80;82.60
1680;DHT22;838;51.794;12.258;2022-08-16T05:00:28;19.80;83.90
1680;DHT22;838;51.794;12.258;2022-08-16T05:03:09;19.90;83.00
1680;DHT22;838;51.794;12.258;2022-08-16T05:05:40;20.20;82.00
1680;DHT22;838;51.794;12.258;2022-08-16T05:08:09;20.50;80.30
1680;DHT22;838;51.794;12.258;2022-08-16T05:10:39;20.80;77.10
1680;DHT22;838;51.794;12.258;2022-08-16T05:13:20;20.90;76.20
1680;DHT22;838;51.794;12.258;2022-08-16T05:16:02;20.90;75.60
1680;DHT22;838;51.794;12.258;2022-08-16T05:18:35;21.00;76.70
1680;DHT22;838;51.794;12.258;2022-08-16T05:21:02;21.10;75.20
1680;DHT22;838;51.794;12.258;2022-08-16T05:23:34;21.20;74.60
1680;DHT22;838;51.794;12.258;2022-08-16T05:26:00;21.40;75.00
1680;DHT22;838;51.794;12.258;2022-08-16T05:28:27;21.70;72.60
1680;DHT22;838;51.794;12.258;2022-08-16T05:30:53;21.70;71.40
1680;DHT22;838;51.794;12.258;2022-08-16T05:33:22;21.40;73.00
1680;DHT22;838;51.794;12.258;2022-08-16T05:35:50;21.10;75.10
1680;DHT22;838;51.794;12.258;2022-08-16T05:38:16;20.90;76.10
1680;DHT22;838;51.794;12.258;2022-08-16T05:40:46;20.90;76.20
1680;DHT22;838;51.794;12.258;2022-08-16T05:43:12;21.00;75.70
1680;DHT22;838;51.794;12.258;2022-08-16T05:45:48;21.20;76.50
1680;DHT22;838;51.794;12.258;2022-08-16T05:48:23;21.30;74.90
1680;DHT22;838;51.794;12.258;2022-08-16T05:50:57;21.20;75.80
1680;DHT22;838;51.794;12.258;2022-08-16T05:53:23;21.30;75.80
1680;DHT22;838;51.794;12.258;2022-08-16T05:55:53;21.40;75.00
1680;DHT22;838;51.794;12.258;2022-08-16T05:58:23;21.60;73.80
1680;DHT22;838;51.794;12.258;2022-08-16T06:00:49;21.80;72.70
1680;DHT22;838;51.794;12.258;2022-08-16T06:03:15;22.00;71.40
1680;DHT22;838;51.794;12.258;2022-08-16T06:05:41;22.10;69.20
1680;DHT22;838;51.794;12.258;2022-08-16T06:08:07;22.20;68.40
1680;DHT22;838;51.794;12.258;2022-08-16T06:10:33;22.40;67.60
1680;DHT22;838;51.794;12.258;2022-08-16T06:12:59;22.60;67.40
1680;DHT22;838;51.794;12.258;2022-08-16T06:15:25;22.70;63.70
1680;DHT22;838;51.794;12.258;2022-08-16T06:17:51;22.90;62.60
1680;DHT22;838;51.794;12.258;2022-08-16T06:20:23;23.00;59.70
1680;DHT22;838;51.794;12.258;2022-08-16T06:22:51;23.10;57.40
1680;DHT22;838;51.794;12.258;2022-08-16T06:25:20;23.10;57.20
1680;DHT22;838;51.794;12.258;2022-08-16T06:27:46;23.10;54.30
1680;DHT22;838;51.794;12.258;2022-08-16T06:30:12;23.20;55.10
1680;DHT22;838;51.794;12.258;2022-08-16T06:32:38;23.40;54.00
1680;DHT22;838;51.794;12.258;2022-08-16T06:35:05;23.70;51.30
1680;DHT22;838;51.794;12.258;2022-08-16T06:37:31;24.00;50.80
1680;DHT22;838;51.794;12.258;2022-08-16T06:39:58;24.50;45.50
1680;DHT22;838;51.794;12.258;2022-08-16T06:42:31;24.70;38.60
1680;DHT22;838;51.794;12.258;2022-08-16T06:44:59;25.00;36.60
1680;DHT22;838;51.794;12.258;2022-08-16T06:47:25;25.10;36.20
1680;DHT22;838;51.794;12.258;2022-08-16T06:49:51;25.00;34.30
1680;DHT22;838;51.794;12.258;2022-08-16T06:52:17;24.70;35.80
1680;DHT22;838;51.794;12.258;2022-08-16T06:54:43;24.70;38.80
1680;DHT22;838;51.794;12.258;2022-08-16T06:57:10;24.80;36.00
1680;DHT22;838;51.794;12.258;2022-08-16T06:59:42;25.10;34.10
1680;DHT22;838;51.794;12.258;2022-08-16T07:02:08;25.10;34.10
1680;DHT22;838;51.794;12.258;2022-08-16T07:04:34;25.10;34.80
1680;DHT22;838;51.794;12.258;2022-08-16T07:07:01;25.00;35.20
1680;DHT22;838;51.794;12.258;2022-08-16T07:09:26;25.00;34.30
1680;DHT22;838;51.794;12.258;2022-08-16T07:11:52;25.00;37.10
1680;DHT22;838;51.794;12.258;2022-08-16T07:14:18;25.10;34.10
1680;DHT22;838;51.794;12.258;2022-08-16T07:16:45;25.00;29.60
1680;DHT22;838;51.794;12.258;2022-08-16T07:19:12;25.00;29.20
1680;DHT22;838;51.794;12.258;2022-08-16T07:21:41;25.00;30.40
1680;DHT22;838;51.794;12.258;2022-08-16T07:24:10;25.30;28.10
1680;DHT22;838;51.794;12.258;2022-08-16T07:26:37;25.50;29.00
1680;DHT22;838;51.794;12.258;2022-08-16T07:29:03;25.90;28.00
1680;DHT22;838;51.794;12.258;2022-08-16T07:31:29;25.90;27.80
1680;DHT22;838;51.794;12.258;2022-08-16T07:33:55;26.10;21.90
1680;DHT22;838;51.794;12.258;2022-08-16T07:36:24;25.90;23.90
1680;DHT22;838;51.794;12.258;2022-08-16T07:38:52;25.80;25.40
1680;DHT22;838;51.794;12.258;2022-08-16T07:41:20;25.80;23.50
1680;DHT22;838;51.794;12.258;2022-08-16T07:43:46;26.00;20.10
1680;DHT22;838;51.794;12.258;2022-08-16T07:46:12;26.00;23.80
1680;DHT22;838;51.794;12.258;2022-08-16T07:48:44;26.10;21.70
1680;DHT22;838;51.794;12.258;2022-08-16T07:51:09;26.40;17.90
1680;DHT22;838;51.794;12.258;2022-08-16T07:53:35;26.50;17.60
1680;DHT22;838;51.794;12.258;2022-08-16T07:56:05;26.50;18.60
1680;DHT22;838;51.794;12.258;2022-08-16T07:58:35;26.20;20.00
1680;DHT22;838;51.794;12.258;2022-08-16T08:01:05;26.00;18.90
1680;DHT22;838;51.794;12.258;2022-08-16T08:03:31;25.70;18.70
1680;DHT22;838;51.794;12.258;2022-08-16T08:05:59;25.70;18.50
1680;DHT22;838;51.794;12.258;2022-08-16T08:08:25;25.60;18.60
1680;DHT22;838;51.794;12.258;2022-08-16T08:10:51;25.30;19.80
1680;DHT22;838;51.794;12.258;2022-08-16T08:13:17;25.50;22.70
1680;DHT22;838;51.794;12.258;2022-08-16T08:15:43;25.40;23.50
1680;DHT22;838;51.794;12.258;2022-08-16T08:18:12;25.60;19.80
1680;DHT22;838;51.794;12.258;2022-08-16T08:20:41;25.70;18.70
1680;DHT22;838;51.794;12.258;2022-08-16T08:23:12;25.80;17.80
1680;DHT22;838;51.794;12.258;2022-08-16T08:25:39;26.20;12.10
1680;DHT22;838;51.794;12.258;2022-08-16T08:28:09;26.50;10.70
1680;DHT22;838;51.794;12.258;2022-08-16T08:30:35;26.80;10.70
1680;DHT22;838;51.794;12.258;2022-08-16T08:33:01;26.70;9.70
1680;DHT22;838;51.794;12.258;2022-08-16T08:35:29;27.00;7.80
1680;DHT22;838;51.794;12.258;2022-08-16T08:37:57;27.70;6.50
1680;DHT22;838;51.794;12.258;2022-08-16T08:40:42;28.20;2.90
1680;DHT22;838;51.794;12.258;2022-08-16T08:43:11;28.90;1.00
1680;DHT22;838;51.794;12.258;2022-08-16T08:45:39;28.90;1.00
1680;DHT22;838;51.794;12.258;2022-08-16T08:52:34;30.00;1.00
1680;DHT22;838;51.794;12.258;2022-08-16T09:05:48;36.10;1.00
1680;DHT22;838;51.794;12.258;2022-08-16T09:11:28;36.20;1.00
1680;DHT22;838;51.794;12.258;2022-08-16T09:14:00;35.80;1.00
1680;DHT22;838;51.794;12.258;2022-08-16T09:16:26;36.20;1.00
1680;DHT22;838;51.794;12.258;2022-08-16T09:18:52;37.10;1.00
1680;DHT22;838;51.794;12.258;2022-08-16T09:21:27;37.50;1.00
1680;DHT22;838;51.794;12.258;2022-08-16T09:23:53;38.10;1.00
1680;DHT22;838;51.794;12.258;2022-08-16T09:29:35;37.00;1.00
1680;DHT22;838;51.794;12.258;2022-08-16T09:32:04;37.10;1.00
1680;DHT22;838;51.794;12.258;2022-08-16T09:34:31;37.70;1.00
1680;DHT22;838;51.794;12.258;2022-08-16T09:37:21;38.00;1.00
1680;DHT22;838;51.794;12.258;2022-08-16T09:57:17;32.80;1.00
1680;DHT22;838;51.794;12.258;2022-08-16T10:06:49;30.30;1.00
1680;DHT22;838;51.794;12.258;2022-08-16T10:09:17;30.30;1.00
1680;DHT22;838;51.794;12.258;2022-08-16T10:11:54;30.30;1.00
1680;DHT22;838;51.794;12.258;2022-08-16T10:14:52;30.60;1.00
1680;DHT22;838;51.794;12.258;2022-08-16T10:17:24;30.50;1.00
1680;DHT22;838;51.794;12.258;2022-08-16T10:20:11;30.50;1.00
1680;DHT22;838;51.794;12.258;2022-08-16T10:23:15;30.30;1.00
1680;DHT22;838;51.794;12.258;2022-08-16T10:25:48;29.80;1.00
1680;DHT22;838;51.794;12.258;2022-08-16T10:36:10;29.90;1.00
1680;DHT22;838;51.794;12.258;2022-08-16T10:38:48;30.10;1.00
1680;DHT22;838;51.794;12.258;2022-08-16T10:41:27;30.30;1.00
1680;DHT22;838;51.794;12.258;2022-08-16T10:48:07;31.00;1.00
1680;DHT22;838;51.794;12.258;2022-08-16T10:50:35;31.30;1.00
1680;DHT22;838;51.794;12.258;2022-08-16T10:56:04;30.80;1.00
1680;DHT22;838;51.794;12.258;2022-08-16T10:58:34;30.80;1.00
1680;DHT22;838;51.794;12.258;2022-08-16T11:01:45;31.20;1.00
1680;DHT22;838;51.794;12.258;2022-08-16T11:14:54;31.50;1.00
1680;DHT22;838;51.794;12.258;2022-08-16T11:17:41;31.80;1.00
1680;DHT22;838;51.794;12.258;2022-08-16T11:33:23;31.60;1.00
1680;DHT22;838;51.794;12.258;2022-08-16T11:36:45;31.80;1.00
1680;DHT22;838;51.794;12.258;2022-08-16T11:56:27;32.00;1.00
1680;DHT22;838;51.794;12.258;2022-08-16T12:03:30;32.20;1.00
1680;DHT22;838;51.794;12.258;2022-08-16T12:36:57;31.10;1.00
1680;DHT22;838;51.794;12.258;2022-08-16T12:40:09;31.00;1.00
1680;DHT22;838;51.794;12.258;2022-08-16T12:42:44;31.20;1.00
1680;DHT22;838;51.794;12.258;2022-08-16T12:49:48;31.50;1.00
1680;DHT22;838;51.794;12.258;2022-08-16T13:06:47;31.60;1.00
1680;DHT22;838;51.794;12.258;2022-08-16T13:16:55;31.10;1.00
1680;DHT22;838;51.794;12.258;2022-08-16T13:43:44;31.80;1.00
1680;DHT22;838;51.794;12.258;2022-08-16T13:46:41;32.00;1.00
1680;DHT22;838;51.794;12.258;2022-08-16T13:49:26;32.40;1.00
1680;DHT22;838;51.794;12.258;2022-08-16T13:59:18;32.90;1.00
1680;DHT22;838;51.794;12.258;2022-08-16T14:02:36;32.50;1.00
1680;DHT22;838;51.794;12.258;2022-08-16T14:19:14;32.30;1.00
1680;DHT22;838;51.794;12.258;2022-08-16T14:25:20;32.60;1.00
1680;DHT22;838;51.794;12.258;2022-08-16T14:27:46;32.50;1.00
1680;DHT22;838;51.794;12.258;2022-08-16T14:30:27;32.50;1.00
1680;DHT22;838;51.794;12.258;2022-08-16T14:33:00;32.30;1.00
1680;DHT22;838;51.794;12.258;2022-08-16T14:42:17;31.00;1.00
1680;DHT22;838;51.794;12.258;2022-08-16T14:51:50;31.30;1.00
1680;DHT22;838;51.794;12.258;2022-08-16T14:54:35;31.40;1.00
1680;DHT22;838;51.794;12.258;2022-08-16T14:57:02;31.40;1.00
1680;DHT22;838;51.794;12.258;2022-08-16T14:59:39;31.60;1.00
1680;DHT22;838;51.794;12.258;2022-08-16T15:02:20;31.90;1.00
1680;DHT22;838;51.794;12.258;2022-08-16T15:05:00;32.30;1.00
1680;DHT22;838;51.794;12.258;2022-08-16T15:07:33;32.60;1.00
1680;DHT22;838;51.794;12.258;2022-08-16T15:10:17;32.50;1.00
1680;DHT22;838;51.794;12.258;2022-08-16T15:13:14;32.50;1.00
1680;DHT22;838;51.794;12.258;2022-08-16T15:15:54;32.90;1.00
1680;DHT22;838;51.794;12.258;2022-08-16T15:18:35;33.00;1.00
1680;DHT22;838;51.794;12.258;2022-08-16T15:21:02;33.20;1.00
1680;DHT22;838;51.794;12.258;2022-08-16T15:23:44;33.00;1.00
1680;DHT22;838;51.794;12.258;2022-08-16T15:26:18;32.80;1.00
1680;DHT22;838;51.794;12.258;2022-08-16T15:28:53;32.90;1.00
1680;DHT22;838;51.794;12.258;2022-08-16T15:31:20;32.80;1.00
1680;DHT22;838;51.794;12.258;2022-08-16T15:34:06;32.70;1.00
1680;DHT22;838;51.794;12.258;2022-08-16T15:36:55;32.70;1.00
1680;DHT22;838;51.794;12.258;2022-08-16T15:39:33;32.90;1.00
1680;DHT22;838;51.794;12.258;2022-08-16T15:42:15;33.00;1.00
1680;DHT22;838;51.794;12.258;2022-08-16T15:45:05;32.80;1.00
1680;DHT22;838;51.794;12.258;2022-08-16T15:47:54;32.60;1.00
1680;DHT22;838;51.794;12.258;2022-08-16T15:51:10;32.30;1.00
1680;DHT22;838;51.794;12.258;2022-08-16T15:54:04;32.40;1.00
1680;DHT22;838;51.794;12.258;2022-08-16T15:56:43;32.40;1.00
1680;DHT22;838;51.794;12.258;2022-08-16T15:59:30;32.30;1.00
1680;DHT22;838;51.794;12.258;2022-08-16T16:02:07;32.30;1.00
1680;DHT22;838;51.794;12.258;2022-08-16T16:04:47;32.50;1.00
1680;DHT22;838;51.794;12.258;2022-08-16T16:07:38;32.50;1.00
1680;DHT22;838;51.794;12.258;2022-08-16T16:10:12;32.70;1.00
1680;DHT22;838;51.794;12.258;2022-08-16T16:12:44;32.90;1.00
1680;DHT22;838;51.794;12.258;2022-08-16T16:15:10;33.00;1.00
1680;DHT22;838;51.794;12.258;2022-08-16T16:17:37;33.00;1.00
1680;DHT22;838;51.794;12.258;2022-08-16T16:23:21;32.80;1.00
1680;DHT22;838;51.794;12.258;2022-08-16T16:25:50;32.50;1.00
1680;DHT22;838;51.794;12.258;2022-08-16T16:28:22;32.40;1.00
1680;DHT22;838;51.794;12.258;2022-08-16T16:30:57;32.60;1.00
1680;DHT22;838;51.794;12.258;2022-08-16T16:33:40;32.60;1.00
1680;DHT22;838;51.794;12.258;2022-08-16T16:36:30;32.30;1.00
1680;DHT22;838;51.794;12.258;2022-08-16T16:48:49;31.90;1.00
1680;DHT22;838;51.794;12.258;2022-08-16T16:51:32;31.60;1.00
1680;DHT22;838;51.794;12.258;2022-08-16T16:54:51;31.50;1.00
1680;DHT22;838;51.794;12.258;2022-08-16T16:57:52;31.60;1.00
1680;DHT22;838;51.794;12.258;2022-08-16T17:01:13;31.40;1.00
1680;DHT22;838;51.794;12.258;2022-08-16T17:04:13;31.40;1.00
1680;DHT22;838;51.794;12.258;2022-08-16T17:06:42;31.20;1.00
1680;DHT22;838;51.794;12.258;2022-08-16T17:12:56;31.40;1.00
1680;DHT22;838;51.794;12.258;2022-08-16T17:15:24;31.60;1.00
1680;DHT22;838;51.794;12.258;2022-08-16T17:18:02;31.50;1.00
1680;DHT22;838;51.794;12.258;2022-08-16T17:20:28;31.50;1.00
1680;DHT22;838;51.794;12.258;2022-08-16T17:26:04;31.10;1.00
1680;DHT22;838;51.794;12.258;2022-08-16T17:28:47;31.00;1.00
1680;DHT22;838;51.794;12.258;2022-08-16T17:31:19;31.00;1.00
1680;DHT22;838;51.794;12.258;2022-08-16T17:34:27;30.80;1.00
1680;DHT22;838;51.794;12.258;2022-08-16T17:37:16;30.60;1.00
1680;DHT22;838;51.794;12.258;2022-08-16T17:39:43;30.50;1.00
1680;DHT22;838;51.794;12.258;2022-08-16T17:45:26;30.80;1.00
1680;DHT22;838;51.794;12.258;2022-08-16T17:48:30;30.90;1.00
1680;DHT22;838;51.794;12.258;2022-08-16T17:55:02;30.90;1.00
1680;DHT22;838;51.794;12.258;2022-08-16T17:57:46;30.80;1.00
1680;DHT22;838;51.794;12.258;2022-08-16T18:00:16;30.70;1.00
1680;DHT22;838;51.794;12.258;2022-08-16T18:08:36;30.00;1.00
1680;DHT22;838;51.794;12.258;2022-08-16T18:11:08;29.80;1.00
1680;DHT22;838;51.794;12.258;2022-08-16T18:13:36;29.60;1.00
1680;DHT22;838;51.794;12.258;2022-08-16T18:16:23;29.10;1.00
1680;DHT22;838;51.794;12.258;2022-08-16T18:18:52;29.00;1.00
1680;DHT22;838;51.794;12.258;2022-08-16T18:21:21;28.80;1.00
1680;DHT22;838;51.794;12.258;2022-08-16T18:24:06;28.60;1.00
1680;DHT22;838;51.794;12.258;2022-08-16T18:26:50;28.50;1.00
1680;DHT22;838;51.794;12.258;2022-08-16T18:29:34;28.30;1.00
1680;DHT22;838;51.794;12.258;2022-08-16T18:32:09;28.10;1.00
1680;DHT22;838;51.794;12.258;2022-08-16T18:34:44;27.60;1.00
1680;DHT22;838;51.794;12.258;2022-08-16T18:37:17;27.10;1.00
1680;DHT22;838;51.794;12.258;2022-08-16T18:39:57;26.90;1.00
1680;DHT22;838;51.794;12.258;2022-08-16T18:42:23;26.90;1.00
1680;DHT22;838;51.794;12.258;2022-08-16T18:44:49;26.50;1.00
1680;DHT22;838;51.794;12.258;2022-08-16T18:47:20;26.50;1.90
1680;DHT22;838;51.794;12.258;2022-08-16T18:49:59;26.50;2.50
1680;DHT22;838;51.794;12.258;2022-08-16T18:52:25;26.50;5.20
1680;DHT22;838;51.794;12.258;2022-08-16T18:54:51;26.50;6.20
1680;DHT22;838;51.794;12.258;2022-08-16T18:57:17;26.40;4.90
1680;DHT22;838;51.794;12.258;2022-08-16T18:59:52;26.40;4.50
1680;DHT22;838;51.794;12.258;2022-08-16T19:02:25;26.40;4.70
1680;DHT22;838;51.794;12.258;2022-08-16T19:04:56;26.40;3.30
1680;DHT22;838;51.794;12.258;2022-08-16T19:07:45;26.10;7.30
1680;DHT22;838;51.794;12.258;2022-08-16T19:10:11;26.10;6.50
1680;DHT22;838;51.794;12.258;2022-08-16T19:12:40;26.00;5.90
1680;DHT22;838;51.794;12.258;2022-08-16T19:15:18;25.90;8.30
1680;DHT22;838;51.794;12.258;2022-08-16T19:17:49;25.80;9.00
1680;DHT22;838;51.794;12.258;2022-08-16T19:20:24;25.80;9.70
1680;DHT22;838;51.794;12.258;2022-08-16T19:22:51;25.50;7.50
1680;DHT22;838;51.794;12.258;2022-08-16T19:25:22;25.40;8.70
1680;DHT22;838;51.794;12.258;2022-08-16T19:28:02;25.30;9.90
1680;DHT22;838;51.794;12.258;2022-08-16T19:30:30;25.20;14.50
1680;DHT22;838;51.794;12.258;2022-08-16T19:33:11;25.20;14.50
1680;DHT22;838;51.794;12.258;2022-08-16T19:35:46;25.10;15.60
1680;DHT22;838;51.794;12.258;2022-08-16T19:38:40;25.10;15.90
1680;DHT22;838;51.794;12.258;2022-08-16T19:41:11;25.10;16.40
1680;DHT22;838;51.794;12.258;2022-08-16T19:43:38;25.10;16.60
1680;DHT22;838;51.794;12.258;2022-08-16T19:46:11;24.80;14.60
1680;DHT22;838;51.794;12.258;2022-08-16T19:48:40;24.70;13.60
1680;DHT22;838;51.794;12.258;2022-08-16T19:51:09;24.70;13.80
1680;DHT22;838;51.794;12.258;2022-08-16T19:53:46;24.70;17.10
1680;DHT22;838;51.794;12.258;2022-08-16T19:58:38;24.40;17.00
1680;DHT22;838;51.794;12.258;2022-08-16T20:01:09;24.30;16.80
1680;DHT22;838;51.794;12.258;2022-08-16T20:03:37;24.40;18.70
1680;DHT22;838;51.794;12.258;2022-08-16T20:06:17;24.50;18.90
1680;DHT22;838;51.794;12.258;2022-08-16T20:11:18;24.50;18.00
1680;DHT22;838;51.794;12.258;2022-08-16T20:13:52;24.50;18.80
1680;DHT22;838;51.794;12.258;2022-08-16T20:16:37;24.50;18.40
1680;DHT22;838;51.794;12.258;2022-08-16T20:19:08;24.40;18.30
1680;DHT22;838;51.794;12.258;2022-08-16T20:21:34;24.30;19.50
1680;DHT22;838;51.794;12.258;2022-08-16T20:29:02;24.10;19.10
1680;DHT22;838;51.794;12.258;2022-08-16T20:31:34;24.00;19.30
1680;DHT22;838;51.794;12.258;2022-08-16T20:34:11;23.90;21.50
1680;DHT22;838;51.794;12.258;2022-08-16T20:36:40;24.00;22.30
1680;DHT22;838;51.794;12.258;2022-08-16T20:39:09;24.00;21.60
1680;DHT22;838;51.794;12.258;2022-08-16T20:41:44;23.80;21.40
1680;DHT22;838;51.794;12.258;2022-08-16T20:44:25;23.70;22.70
1680;DHT22;838;51.794;12.258;2022-08-16T20:46:54;23.50;22.30
1680;DHT22;838;51.794;12.258;2022-08-16T20:49:23;23.30;23.60
1680;DHT22;838;51.794;12.258;2022-08-16T20:51:49;23.30;24.50
1680;DHT22;838;51.794;12.258;2022-08-16T20:54:14;23.30;24.70
1680;DHT22;838;51.794;12.258;2022-08-16T20:56:40;23.30;25.40
1680;DHT22;838;51.794;12.258;2022-08-16T20:59:06;23.30;25.50
1680;DHT22;838;51.794;12.258;2022-08-16T21:01:32;23.40;26.40
1680;DHT22;838;51.794;12.258;2022-08-16T21:03:58;23.40;26.50
1680;DHT22;838;51.794;12.258;2022-08-16T21:06:24;23.30;26.00
1680;DHT22;838;51.794;12.258;2022-08-16T21:08:51;23.30;26.30
1680;DHT22;838;51.794;12.258;2022-08-16T21:11:17;23.20;25.30
1680;DHT22;838;51.794;12.258;2022-08-16T21:13:51;23.00;26.10